Time;durP1;ratioP1;P1;durP2;ratioP2;P2;SDS_P1;SDS_P2;PMS_P1;PMS_P2;Temp;Humidity;BMP_temperature;BMP_pressure;BME280_temperature;BME280_humidity;BME280_pressure;Samples;Min_cycle;Max_cycle;Signal;HPM_P1;HPM_P2
2022/01/09 00:00:24;;;;;;;3.35;2.15;;;;;;;0.89;58.79;98839.50;5055901;28;20048;-72
2022/01/09 00:02:51;;;;;;;2.40;1.92;;;;;;;0.67;59.67;98835.94;5048222;28;20042;-72
2022/01/09 00:05:17;;;;;;;3.80;2.42;;;;;;;1.14;58.70;98837.84;5034337;28;20324;-73
2022/01/09 00:07:42;;;;;;;3.85;2.28;;;;;;;1.20;58.33;98838.50;5051633;28;20481;-72
2022/01/09 00:10:14;;;;;;;2.30;1.85;;;;;;;0.82;59.45;98842.34;5038365;28;20036;-72
2022/01/09 00:12:40;;;;;;;3.17;2.33;;;;;;;1.11;58.62;98839.63;5035825;28;20040;-71
2022/01/09 00:15:06;;;;;;;3.92;2.17;;;;;;;1.14;58.56;98837.84;5031151;28;20347;-72
2022/01/09 00:17:32;;;;;;;3.92;2.88;;;;;;;1.14;58.63;98837.84;5028684;28;20399;-73
2022/01/09 00:20:01;;;;;;;2.63;1.88;;;;;;;0.96;59.02;98823.88;5046229;28;20116;-73
2022/01/09 00:22:43;;;;;;;2.40;1.95;;;;;;;1.06;58.79;98825.22;5034981;28;20061;-73
2022/01/09 00:25:09;;;;;;;3.45;2.15;;;;;;;1.28;58.11;98827.91;5022073;28;20055;-72
2022/01/09 00:27:36;;;;;;;2.97;1.63;;;;;;;0.78;59.25;98823.56;5054904;28;20039;-73
2022/01/09 00:30:04;;;;;;;2.85;1.85;;;;;;;0.57;60.33;98819.97;5037656;28;20048;-73
2022/01/09 00:32:29;;;;;;;3.47;2.38;;;;;;;1.40;58.04;98822.41;5054369;28;20045;-73
2022/01/09 00:34:57;;;;;;;2.25;1.80;;;;;;;0.96;59.69;98819.56;5053275;28;20055;-73
2022/01/09 00:37:23;;;;;;;2.83;1.95;;;;;;;1.36;58.35;98813.06;5040744;28;20089;-73
2022/01/09 00:39:48;;;;;;;2.20;1.35;;;;;;;1.20;58.58;98817.91;5036558;28;20140;-72
2022/01/09 00:42:14;;;;;;;4.65;2.13;;;;;;;1.51;58.00;98812.56;5032426;28;20067;-73
2022/01/09 00:44:42;;;;;;;2.65;1.63;;;;;;;1.37;58.45;98809.56;5052825;28;20048;-72
2022/01/09 00:47:07;;;;;;;2.10;1.48;;;;;;;1.54;57.69;98806.44;5042003;28;20533;-73
2022/01/09 00:49:33;;;;;;;3.08;1.58;;;;;;;1.71;57.38;98804.13;5037736;28;20076;-73
2022/01/09 00:51:58;;;;;;;4.28;1.73;;;;;;;1.52;58.01;98806.50;5029271;28;20040;-73
2022/01/09 00:54:23;;;;;;;2.60;2.17;;;;;;;1.47;57.82;98795.53;5034420;28;20522;-73
2022/01/09 00:56:51;;;;;;;3.97;1.63;;;;;;;1.42;58.17;98796.59;5014085;28;20052;-73
2022/01/09 00:59:17;;;;;;;2.33;1.60;;;;;;;1.36;58.65;98805.34;5041874;28;20136;-73
2022/01/09 01:01:42;;;;;;;3.15;1.45;;;;;;;1.04;59.28;98802.16;5048098;28;20729;-73
2022/01/09 01:04:08;;;;;;;2.90;1.42;;;;;;;1.10;59.24;98801.94;5027055;28;20055;-73
2022/01/09 01:06:33;;;;;;;3.33;1.88;;;;;;;1.51;58.43;98791.13;5052801;28;20108;-72
2022/01/09 01:08:59;;;;;;;2.63;1.48;;;;;;;1.18;59.20;98793.13;5053822;28;20490;-72
2022/01/09 01:11:24;;;;;;;2.80;1.95;;;;;;;1.53;58.12;98797.06;5052938;28;20385;-72
2022/01/09 01:13:50;;;;;;;2.13;1.40;;;;;;;1.16;59.32;98795.72;5050747;28;21263;-73
2022/01/09 01:16:15;;;;;;;2.85;1.50;;;;;;;1.55;58.05;98790.13;5050565;28;20086;-72
2022/01/09 01:18:45;;;;;;;2.65;1.65;;;;;;;1.81;57.13;98793.47;5047556;28;20096;-73
2022/01/09 01:21:13;;;;;;;3.45;1.50;;;;;;;1.78;57.47;98793.59;5046328;28;20043;-72
2022/01/09 01:23:39;;;;;;;2.28;1.42;;;;;;;1.86;57.08;98789.84;5050901;28;20586;-73
2022/01/09 01:26:07;;;;;;;1.80;1.30;;;;;;;1.62;57.96;98793.31;5047817;28;20082;-72
2022/01/09 01:28:33;;;;;;;1.65;1.27;;;;;;;1.74;57.46;98798.00;5048903;28;20029;-73
2022/01/09 01:30:59;;;;;;;1.67;1.30;;;;;;;1.61;57.95;98791.63;5037821;28;20033;-73
2022/01/09 01:33:27;;;;;;;1.98;1.40;;;;;;;1.69;57.57;98792.19;5049542;28;20065;-73
2022/01/09 01:35:55;;;;;;;2.05;1.30;;;;;;;1.87;57.12;98788.94;5033510;28;20477;-73
2022/01/09 01:38:23;;;;;;;1.48;0.98;;;;;;;1.68;57.78;98790.50;5038756;28;20149;-72
2022/01/09 01:40:49;;;;;;;2.90;1.20;;;;;;;1.90;57.29;98793.94;5030444;28;20035;-73
2022/01/09 01:43:15;;;;;;;2.10;1.35;;;;;;;1.58;58.05;98794.31;5032313;28;20128;-75
2022/01/09 01:45:40;;;;;;;2.25;1.40;;;;;;;1.79;57.34;98788.38;5026601;28;20039;-73
2022/01/09 01:48:06;;;;;;;1.67;0.88;;;;;;;1.89;57.43;98787.13;5025870;28;20033;-73
2022/01/09 01:50:38;;;;;;;1.98;1.35;;;;;;;1.59;57.95;98788.25;5052788;28;20398;-73
2022/01/09 01:53:15;;;;;;;1.63;0.88;;;;;;;1.52;57.78;98788.47;5028845;28;20490;-73
2022/01/09 01:55:41;;;;;;;1.95;1.08;;;;;;;1.20;59.14;98794.75;5050559;28;20029;-73
2022/01/09 01:58:12;;;;;;;2.00;1.30;;;;;;;0.39;61.92;98784.53;5053310;28;20033;-73
2022/01/09 02:00:39;;;;;;;1.98;1.67;;;;;;;0.87;60.28;98792.41;5022618;28;20406;-73
2022/01/09 02:03:09;;;;;;;1.85;1.35;;;;;;;1.16;59.29;98793.16;5023060;28;20029;-72
2022/01/09 02:05:35;;;;;;;4.07;1.40;;;;;;;1.61;57.94;98789.88;5028522;28;20562;-73
2022/01/09 02:08:02;;;;;;;1.88;1.27;;;;;;;1.47;58.47;98794.69;5055629;28;20037;-73
2022/01/09 02:10:28;;;;;;;1.33;0.95;;;;;;;1.54;58.22;98795.31;5046085;28;20067;-74
2022/01/09 02:12:56;;;;;;;2.10;1.23;;;;;;;1.68;57.32;98793.91;5054316;28;20029;-73
2022/01/09 02:15:32;;;;;;;2.47;1.48;;;;;;;1.39;58.32;98794.91;5054627;28;21044;-73
2022/01/09 02:18:00;;;;;;;2.25;0.80;;;;;;;1.45;58.37;98793.91;5051726;28;20329;-73
2022/01/09 02:20:28;;;;;;;1.90;1.00;;;;;;;1.67;57.62;98801.72;5042373;28;20054;-73
2022/01/09 02:22:54;;;;;;;1.70;1.02;;;;;;;1.50;57.77;98799.72;5033490;28;20028;-75
2022/01/09 02:25:19;;;;;;;1.25;1.10;;;;;;;1.49;58.19;98798.91;5049823;28;20045;-73
2022/01/09 02:27:45;;;;;;;1.58;1.17;;;;;;;1.57;57.51;98797.78;5041926;28;20044;-73
2022/01/09 02:30:10;;;;;;;2.28;1.30;;;;;;;1.65;57.38;98793.19;5025960;28;20063;-72
2022/01/09 02:32:36;;;;;;;1.27;1.02;;;;;;;1.52;57.95;98793.63;5057473;28;20287;-72
2022/01/09 02:35:02;;;;;;;1.13;0.70;;;;;;;1.40;58.10;98794.06;5057877;28;20141;-72
2022/01/09 02:37:27;;;;;;;1.42;0.73;;;;;;;1.08;58.84;98798.59;5057930;28;20028;-73
2022/01/09 02:39:53;;;;;;;2.13;1.20;;;;;;;1.03;58.88;98800.44;5057276;28;20502;-73
2022/01/09 02:42:22;;;;;;;1.38;0.88;;;;;;;1.43;58.22;98798.28;5051237;28;20048;-72
2022/01/09 02:44:48;;;;;;;1.38;0.80;;;;;;;1.20;59.04;98806.78;5054467;28;20136;-72
2022/01/09 02:47:13;;;;;;;1.65;1.10;;;;;;;1.64;57.46;98796.66;5042169;28;20472;-72
2022/01/09 02:49:39;;;;;;;1.25;1.02;;;;;;;1.56;57.94;98803.84;5023525;28;20032;-72
2022/01/09 02:52:11;;;;;;;1.45;1.05;;;;;;;1.03;59.38;98804.75;5039623;28;20604;-72
2022/01/09 02:57:20;;;;;;;1.63;1.08;;;;;;;1.83;57.17;98802.81;5050291;28;20043;-72
2022/01/09 02:59:46;;;;;;;1.92;0.90;;;;;;;1.28;58.45;98809.91;5029336;28;20036;-71
2022/01/09 03:02:11;;;;;;;1.52;1.08;;;;;;;1.75;57.21;98815.13;5043834;28;20200;-72
2022/01/09 03:04:37;;;;;;;1.70;1.10;;;;;;;1.53;57.83;98815.09;5048367;28;20045;-72
2022/01/09 03:07:03;;;;;;;1.80;1.00;;;;;;;1.89;56.37;98807.75;5043347;28;20091;-72
2022/01/09 03:09:28;;;;;;;1.50;0.82;;;;;;;1.33;57.95;98818.31;5043695;28;20093;-74
2022/01/09 03:11:57;;;;;;;2.80;1.30;;;;;;;1.51;57.85;98809.97;5057603;28;20120;-72
2022/01/09 03:14:24;;;;;;;1.85;1.08;;;;;;;1.61;57.37;98807.91;5035493;28;20103;-72
2022/01/09 03:16:50;;;;;;;1.42;0.90;;;;;;;1.48;57.46;98802.38;5035824;28;20395;-72
2022/01/09 03:19:15;;;;;;;1.52;1.38;;;;;;;1.77;56.95;98812.50;5040439;28;20089;-72
2022/01/09 03:21:41;;;;;;;1.40;0.88;;;;;;;1.52;57.53;98814.22;5054619;28;20044;-73
2022/01/09 03:24:08;;;;;;;1.50;1.20;;;;;;;1.67;57.01;98809.44;5033818;28;20036;-72
2022/01/09 03:26:36;;;;;;;1.75;1.30;;;;;;;0.84;59.30;98819.97;5038572;28;20405;-72
2022/01/09 03:29:02;;;;;;;1.75;1.08;;;;;;;0.64;60.34;98816.31;5045703;28;20484;-72
2022/01/09 03:31:28;;;;;;;1.52;1.23;;;;;;;1.29;57.92;98817.56;5056623;28;20127;-72
2022/01/09 03:33:55;;;;;;;1.83;1.10;;;;;;;1.34;58.19;98817.41;5054554;28;20036;-73
2022/01/09 03:36:21;;;;;;;1.67;0.93;;;;;;;1.24;58.24;98819.47;5056429;28;20093;-73
2022/01/09 03:38:46;;;;;;;1.27;0.90;;;;;;;1.40;57.65;98818.94;5044608;28;20036;-73
2022/01/09 03:41:12;;;;;;;1.30;0.63;;;;;;;1.59;56.95;98814.84;5049103;28;20521;-73
2022/01/09 03:43:40;;;;;;;1.80;1.08;;;;;;;1.22;58.10;98816.13;5023481;28;20503;-72
2022/01/09 03:46:05;;;;;;;1.42;0.73;;;;;;;1.54;57.21;98811.59;5023401;28;20049;-72
2022/01/09 03:48:32;;;;;;;1.55;0.90;;;;;;;1.21;58.19;98818.72;5037650;28;20047;-72
2022/01/09 03:50:57;;;;;;;2.45;1.25;;;;;;;1.01;59.03;98827.97;5031719;28;20539;-72
2022/01/09 03:53:23;;;;;;;1.35;1.00;;;;;;;0.96;59.26;98814.41;5037750;28;20062;-73
2022/01/09 03:55:51;;;;;;;1.60;1.00;;;;;;;1.24;58.45;98821.22;5053235;28;20028;-72
2022/01/09 03:58:16;;;;;;;1.80;1.30;;;;;;;1.47;57.58;98821.28;5015562;28;20182;-72
2022/01/09 04:00:42;;;;;;;1.83;1.35;;;;;;;1.71;56.52;98816.16;5038437;28;20497;-72
2022/01/09 04:03:07;;;;;;;1.55;1.08;;;;;;;1.42;57.38;98818.03;5034202;28;20498;-72
2022/01/09 04:05:35;;;;;;;1.90;1.08;;;;;;;1.46;57.71;98819.63;5040018;28;20121;-75
2022/01/09 04:08:00;;;;;;;1.23;0.80;;;;;;;1.37;57.59;98814.72;5042725;28;20515;-72
2022/01/09 04:10:40;;;;;;;2.97;1.02;;;;;;;1.58;57.03;98817.50;5025316;28;20045;-72
2022/01/09 04:13:06;;;;;;;1.38;1.08;;;;;;;1.37;58.00;98814.72;5041979;28;20045;-73
2022/01/09 04:15:31;;;;;;;2.22;1.50;;;;;;;1.55;57.50;98807.28;5040442;28;20106;-72
2022/01/09 04:18:00;;;;;;;1.52;0.90;;;;;;;1.00;58.90;98810.03;5042112;28;20461;-72
2022/01/09 04:20:30;;;;;;;1.85;1.05;;;;;;;0.90;59.28;98823.19;5033405;28;20045;-72
2022/01/09 04:22:56;;;;;;;1.83;0.80;;;;;;;1.57;57.12;98821.78;5056177;28;20036;-73
2022/01/09 04:25:22;;;;;;;1.67;1.13;;;;;;;1.76;56.71;98826.28;5048664;28;20130;-72
2022/01/09 04:27:50;;;;;;;2.30;1.23;;;;;;;1.84;56.40;98825.13;5038010;28;20547;-72
2022/01/09 04:30:16;;;;;;;1.83;1.08;;;;;;;1.65;56.82;98824.94;5057685;28;20507;-73
2022/01/09 04:32:42;;;;;;;2.38;1.48;;;;;;;1.77;56.37;98836.53;5040531;28;20498;-72
2022/01/09 04:35:10;;;;;;;2.42;1.73;;;;;;;1.55;57.19;98827.88;5055404;28;20040;-72
2022/01/09 04:37:37;;;;;;;2.28;2.03;;;;;;;1.70;56.63;98838.47;5053891;28;20123;-72
2022/01/09 04:40:05;;;;;;;2.67;1.25;;;;;;;1.64;57.44;98832.69;5041043;28;20039;-72
2022/01/09 04:42:43;;;;;;;2.30;1.48;;;;;;;1.56;57.38;98834.72;5057181;28;20476;-72
2022/01/09 04:45:14;;;;;;;3.33;1.98;;;;;;;1.29;58.62;98834.75;5052374;28;20059;-73
2022/01/09 04:47:43;;;;;;;3.40;2.22;;;;;;;1.78;56.85;98829.66;5046824;28;20060;-72
2022/01/09 04:50:13;;;;;;;2.40;1.45;;;;;;;1.68;56.90;98834.28;5054370;28;20523;-72
2022/01/09 04:52:39;;;;;;;2.75;1.88;;;;;;;1.67;57.22;98838.59;5029256;28;20040;-73
2022/01/09 04:55:07;;;;;;;3.08;2.55;;;;;;;1.79;56.80;98833.91;5054108;28;20037;-72
2022/01/09 04:57:33;;;;;;;2.55;2.28;;;;;;;2.03;56.30;98845.03;5039057;28;20107;-73
2022/01/09 05:00:04;;;;;;;3.42;1.98;;;;;;;1.67;57.51;98848.06;5037111;28;20411;-72
2022/01/09 05:02:30;;;;;;;4.15;2.30;;;;;;;1.75;57.28;98856.34;5036282;28;20557;-72
2022/01/09 05:05:00;;;;;;;2.53;1.73;;;;;;;1.66;57.51;98866.97;5021320;28;20045;-72
2022/01/09 05:07:26;;;;;;;3.95;2.55;;;;;;;1.61;57.79;98876.59;5033188;28;20037;-72
2022/01/09 05:09:51;;;;;;;2.42;2.08;;;;;;;1.68;57.50;98881.47;5041455;28;20242;-73
2022/01/09 05:12:17;;;;;;;3.95;2.28;;;;;;;1.90;56.58;98881.56;5044740;28;20033;-72
2022/01/09 05:14:45;;;;;;;2.97;2.33;;;;;;;1.94;57.21;98871.97;5033315;28;20056;-72
2022/01/09 05:17:10;;;;;;;2.55;2.35;;;;;;;1.68;57.68;98876.31;5046308;28;20036;-72
2022/01/09 05:19:36;;;;;;;4.82;2.85;;;;;;;1.49;58.51;98870.97;5020642;28;20602;-72
2022/01/09 05:22:08;;;;;;;3.45;2.60;;;;;;;1.72;57.64;98877.06;5032517;28;20123;-71
2022/01/09 05:24:35;;;;;;;4.32;2.78;;;;;;;1.52;58.36;98870.88;5035554;28;20793;-73
2022/01/09 05:27:01;;;;;;;4.15;2.78;;;;;;;1.89;57.38;98874.72;5041866;28;20496;-72
2022/01/09 05:29:26;;;;;;;4.85;2.53;;;;;;;1.71;58.46;98875.41;5032346;28;20044;-73
2022/01/09 05:31:52;;;;;;;5.50;3.33;;;;;;;1.78;58.60;98876.03;5037861;28;20036;-72
2022/01/09 05:34:21;;;;;;;5.18;3.38;;;;;;;1.24;60.06;98888.13;5045903;28;20041;-73
2022/01/09 05:36:46;;;;;;;4.97;2.92;;;;;;;1.67;59.20;98897.00;5045424;28;20032;-73
2022/01/09 05:39:12;;;;;;;8.15;4.05;;;;;;;2.12;58.03;98901.41;5026553;28;20564;-72
2022/01/09 05:41:39;;;;;;;4.55;3.72;;;;;;;1.37;59.60;98907.41;5046614;28;20037;-73
2022/01/09 05:44:05;;;;;;;5.30;3.28;;;;;;;1.81;58.67;98907.63;5051128;28;20067;-73
2022/01/09 05:46:30;;;;;;;7.68;4.10;;;;;;;2.26;57.16;98896.56;5054357;28;20036;-73
2022/01/09 05:48:56;;;;;;;4.72;3.78;;;;;;;1.96;58.02;98897.72;5054660;28;20456;-73
2022/01/09 05:51:21;;;;;;;6.05;4.00;;;;;;;2.25;57.22;98897.47;5026903;28;20040;-73
2022/01/09 05:53:47;;;;;;;4.80;3.28;;;;;;;1.90;58.38;98896.19;5048313;28;20124;-73
2022/01/09 05:56:12;;;;;;;7.38;4.50;;;;;;;2.27;57.62;98902.56;5052370;28;20059;-73
2022/01/09 05:58:39;;;;;;;7.60;4.15;;;;;;;2.39;56.86;98909.00;5009177;28;20118;-73
2022/01/09 06:01:06;;;;;;;6.60;4.28;;;;;;;2.54;56.40;98903.28;5008502;28;20046;-72
2022/01/09 06:03:31;;;;;;;5.60;3.55;;;;;;;2.58;56.14;98912.56;5022903;28;20035;-73
2022/01/09 06:05:57;;;;;;;6.90;3.80;;;;;;;2.41;56.79;98910.63;5039717;28;20406;-73
2022/01/09 06:08:23;;;;;;;6.00;4.10;;;;;;;2.42;57.17;98914.03;5016284;28;20036;-73
2022/01/09 06:10:48;;;;;;;9.85;4.55;;;;;;;2.58;56.95;98925.47;5047091;28;20259;-73
2022/01/09 06:13:13;;;;;;;8.80;5.07;;;;;;;2.31;57.33;98928.19;5038695;28;20037;-73
2022/01/09 06:15:39;;;;;;;9.23;5.32;;;;;;;2.50;57.50;98935.22;5037432;28;20052;-73
2022/01/09 06:18:07;;;;;;;8.27;4.30;;;;;;;2.63;57.17;98943.34;5044560;28;20040;-73
2022/01/09 06:20:32;;;;;;;11.27;4.68;;;;;;;2.37;57.68;98946.91;5022045;28;20518;-73
2022/01/09 06:22:58;;;;;;;8.35;5.25;;;;;;;2.64;57.35;98937.28;5036324;28;20032;-73
2022/01/09 06:25:23;;;;;;;7.65;4.72;;;;;;;2.18;58.53;98952.72;5036989;28;20503;-73
2022/01/09 06:27:49;;;;;;;7.38;5.22;;;;;;;2.47;58.06;98958.56;5050556;28;20466;-74
2022/01/09 06:30:14;;;;;;;12.70;5.75;;;;;;;2.68;57.63;98962.91;5039606;28;20135;-73
2022/01/09 06:32:40;;;;;;;9.25;5.40;;;;;;;2.62;57.59;98964.88;5028250;28;20106;-73
2022/01/09 06:35:06;;;;;;;11.70;6.35;;;;;;;2.51;57.69;98970.41;5043367;28;20040;-73
2022/01/09 06:37:32;;;;;;;7.38;4.55;;;;;;;2.65;57.81;98972.50;5035392;28;20491;-73
2022/01/09 06:39:59;;;;;;;8.75;5.18;;;;;;;2.74;57.60;98979.91;5051472;28;20109;-74
2022/01/09 06:42:25;;;;;;;9.25;3.88;;;;;;;2.83;57.44;98991.63;5052943;28;20039;-73
2022/01/09 06:44:51;;;;;;;9.52;4.10;;;;;;;2.74;57.77;98988.47;5035865;28;20048;-74
2022/01/09 06:47:17;;;;;;;6.88;2.83;;;;;;;2.99;57.49;98990.13;5052535;28;20032;-73
2022/01/09 06:49:43;;;;;;;7.05;1.33;;;;;;;2.80;58.64;99002.03;5027207;28;20053;-73
2022/01/09 06:52:08;;;;;;;7.53;1.20;;;;;;;3.04;58.36;99006.25;5039865;28;20059;-73
2022/01/09 06:54:34;;;;;;;6.07;0.73;;;;;;;3.01;59.07;99008.97;5035588;28;20402;-73
2022/01/09 06:57:00;;;;;;;3.92;0.82;;;;;;;2.52;60.72;99014.22;5056211;28;20490;-72
2022/01/09 06:59:25;;;;;;;7.20;0.52;;;;;;;2.94;59.85;99021.25;5028482;28;20033;-73
2022/01/09 07:01:51;;;;;;;14.25;0.88;;;;;;;2.67;60.54;99028.28;5016197;28;20120;-72
2022/01/09 07:04:17;;;;;;;5.32;1.40;;;;;;;2.69;60.40;99033.38;5041185;28;20037;-73
2022/01/09 07:06:45;;;;;;;11.90;0.60;;;;;;;2.69;60.69;99038.53;5017030;28;20021;-73
2022/01/09 07:09:10;;;;;;;6.50;0.50;;;;;;;3.05;59.66;99041.50;5043323;28;20064;-73
2022/01/09 07:11:35;;;;;;;4.65;0.60;;;;;;;3.10;59.09;99051.66;5050776;28;20465;-73
2022/01/09 07:14:01;;;;;;;12.73;0.90;;;;;;;3.26;58.80;99049.31;5030813;28;20063;-74
2022/01/09 07:16:26;;;;;;;9.65;0.60;;;;;;;3.25;58.61;99053.66;5051847;28;20040;-74
2022/01/09 07:18:52;;;;;;;8.38;1.02;;;;;;;3.26;58.43;99057.91;5005663;28;20097;-74
2022/01/09 07:21:17;;;;;;;10.18;1.20;;;;;;;3.27;58.44;99059.59;5045203;28;20064;-74
2022/01/09 07:23:43;;;;;;;6.25;1.42;;;;;;;3.23;58.12;99062.38;5029652;28;20060;-74
2022/01/09 07:26:10;;;;;;;12.88;0.85;;;;;;;3.37;57.62;99075.59;5024848;28;20121;-74
2022/01/09 07:28:36;;;;;;;6.63;0.75;;;;;;;3.29;58.04;99077.63;5030643;28;20029;-73
2022/01/09 07:31:04;;;;;;;11.98;0.85;;;;;;;3.33;57.79;99080.03;5059054;28;20029;-73
2022/01/09 07:33:30;;;;;;;8.38;0.40;;;;;;;3.29;57.96;99087.94;5022175;28;20039;-73
2022/01/09 07:35:59;;;;;;;9.18;0.50;;;;;;;3.59;57.19;99104.00;5057004;28;20055;-74
2022/01/09 07:38:24;;;;;;;13.60;1.42;;;;;;;3.38;57.83;99097.94;5049839;28;20420;-74
2022/01/09 07:40:51;;;;;;;6.90;0.90;;;;;;;3.57;56.91;99113.56;5037239;28;20056;-74
2022/01/09 07:43:17;;;;;;;9.55;0.52;;;;;;;3.69;56.82;99118.22;5037815;28;20032;-74
2022/01/09 07:45:43;;;;;;;14.73;1.08;;;;;;;3.70;57.12;99124.28;5025809;28;20135;-74
2022/01/09 07:48:08;;;;;;;15.80;0.90;;;;;;;3.82;56.50;99125.50;5036756;28;20123;-74
2022/01/09 07:50:33;;;;;;;26.10;2.20;;;;;;;3.71;57.26;99137.09;5048843;28;20032;-74
2022/01/09 07:52:59;;;;;;;6.25;1.35;;;;;;;3.93;56.12;99139.69;5053544;28;20127;-74
2022/01/09 07:55:25;;;;;;;17.35;1.80;;;;;;;3.58;57.40;99157.44;5019063;28;20181;-73
2022/01/09 07:57:53;;;;;;;11.73;1.17;;;;;;;3.73;57.08;99157.72;5035536;28;20036;-74
2022/01/09 08:00:19;;;;;;;16.67;2.00;;;;;;;3.57;57.96;99163.47;5048928;28;20041;-74
2022/01/09 08:02:46;;;;;;;11.48;1.77;;;;;;;3.72;57.99;99163.81;5045849;28;20067;-73
2022/01/09 08:05:16;;;;;;;14.60;1.42;;;;;;;3.69;58.14;99169.06;5039035;28;20192;-74
2022/01/09 08:07:45;;;;;;;13.45;0.88;;;;;;;3.76;57.79;99180.84;5048563;28;20041;-73
2022/01/09 08:10:11;;;;;;;13.52;2.03;;;;;;;3.97;57.20;99177.44;5032058;28;20084;-73
2022/01/09 08:12:37;;;;;;;15.05;1.25;;;;;;;3.88;57.75;99180.38;5040442;28;20459;-73
2022/01/09 08:15:04;;;;;;;13.80;1.20;;;;;;;4.02;57.06;99188.44;5022387;28;20029;-73
2022/01/09 08:17:30;;;;;;;16.13;1.30;;;;;;;3.96;57.51;99195.59;5048018;28;20319;-73
2022/01/09 08:19:55;;;;;;;11.32;1.95;;;;;;;3.88;57.86;99195.91;5056776;28;20033;-74
2022/01/09 08:22:21;;;;;;;12.15;1.52;;;;;;;3.84;58.40;99203.84;5042223;28;20044;-74
2022/01/09 08:24:47;;;;;;;15.07;1.25;;;;;;;4.04;57.58;99210.81;5037546;28;20032;-74
2022/01/09 08:27:12;;;;;;;14.45;1.50;;;;;;;3.82;58.31;99205.63;5050797;28;20043;-74
2022/01/09 08:29:38;;;;;;;9.77;1.40;;;;;;;4.01;57.51;99210.03;5030710;28;20036;-74
2022/01/09 08:32:05;;;;;;;16.50;2.30;;;;;;;3.77;58.62;99214.41;5041096;28;20093;-74
2022/01/09 08:34:30;;;;;;;20.05;1.52;;;;;;;3.81;58.35;99220.31;5055110;28;20051;-73
2022/01/09 08:36:56;;;;;;;14.75;1.33;;;;;;;3.79;58.28;99217.78;5047264;28;20024;-73
2022/01/09 08:39:23;;;;;;;18.45;1.55;;;;;;;3.70;58.50;99222.47;5040736;28;20044;-73
2022/01/09 08:41:49;;;;;;;8.30;1.50;;;;;;;3.83;58.53;99223.69;5036543;28;20299;-73
2022/01/09 08:44:14;;;;;;;15.75;1.05;;;;;;;3.43;59.26;99237.25;5019917;28;20156;-74
2022/01/09 08:46:40;;;;;;;12.80;1.38;;;;;;;3.14;59.67;99233.94;5049186;28;20041;-73
2022/01/09 08:49:05;;;;;;;16.27;1.88;;;;;;;3.25;59.57;99242.13;5040174;28;20040;-73
2022/01/09 08:51:31;;;;;;;20.08;1.67;;;;;;;3.83;57.65;99244.34;5047537;28;20044;-73
2022/01/09 08:53:58;;;;;;;8.93;1.40;;;;;;;3.65;57.62;99250.19;5037125;28;20131;-73
2022/01/09 08:56:26;;;;;;;9.68;0.90;;;;;;;3.62;57.59;99266.66;5038453;28;20493;-73
2022/01/09 08:58:52;;;;;;;10.60;1.65;;;;;;;3.62;57.41;99268.41;5056473;28;20037;-73
2022/01/09 09:01:20;;;;;;;9.52;1.33;;;;;;;3.86;56.96;99267.47;5036146;28;20036;-73
2022/01/09 09:03:48;;;;;;;10.68;1.10;;;;;;;3.81;56.87;99277.16;5041095;28;20273;-73
2022/01/09 09:06:17;;;;;;;6.22;1.38;;;;;;;3.47;57.63;99282.69;5055263;28;20033;-72
2022/01/09 09:08:43;;;;;;;17.83;1.75;;;;;;;3.70;57.48;99284.47;5021486;28;20056;-73
2022/01/09 09:11:11;;;;;;;9.70;1.52;;;;;;;3.38;58.08;99289.03;5036403;28;20032;-72
2022/01/09 09:13:38;;;;;;;5.00;0.63;;;;;;;3.79;56.71;99297.06;5035422;28;20057;-72
2022/01/09 09:16:05;;;;;;;11.65;1.58;;;;;;;3.62;57.11;99305.41;5039961;28;20047;-73
2022/01/09 09:18:30;;;;;;;16.83;1.20;;;;;;;3.77;56.50;99301.44;5018601;28;20030;-73
2022/01/09 09:20:57;;;;;;;13.82;1.55;;;;;;;4.00;56.24;99309.16;5037046;28;20103;-73
2022/01/09 09:23:23;;;;;;;8.60;1.73;;;;;;;3.98;55.99;99321.31;5039135;28;20200;-72
2022/01/09 09:25:48;;;;;;;10.40;0.93;;;;;;;3.70;56.87;99310.31;5045853;28;20033;-72
2022/01/09 09:28:16;;;;;;;7.68;0.88;;;;;;;3.91;56.47;99319.84;5029126;28;20033;-72
2022/01/09 09:30:42;;;;;;;11.57;1.05;;;;;;;3.83;56.35;99314.13;5044214;28;20652;-72
2022/01/09 09:33:07;;;;;;;8.38;0.60;;;;;;;4.09;56.05;99320.06;5055410;28;20294;-72
2022/01/09 09:35:33;;;;;;;16.88;1.85;;;;;;;4.17;55.95;99325.78;5038051;28;20150;-73
2022/01/09 09:37:58;;;;;;;9.88;0.85;;;;;;;4.32;55.44;99335.56;5035207;28;20089;-73
2022/01/09 09:40:25;;;;;;;11.77;1.15;;;;;;;4.27;55.03;99341.78;5028040;28;20056;-73
2022/01/09 09:42:51;;;;;;;10.48;0.70;;;;;;;4.21;54.91;99340.28;5040435;28;20115;-73
2022/01/09 09:45:17;;;;;;;10.80;1.23;;;;;;;4.37;54.73;99340.53;5013187;28;20114;-72
2022/01/09 09:47:43;;;;;;;5.78;0.70;;;;;;;4.51;54.39;99343.41;5040076;28;20025;-72
2022/01/09 09:50:14;;;;;;;12.10;1.42;;;;;;;4.51;54.21;99351.19;5036276;28;20683;-72
2022/01/09 09:52:41;;;;;;;22.83;1.50;;;;;;;4.62;53.73;99363.72;5043027;28;20112;-72
2022/01/09 09:55:07;;;;;;;15.40;1.23;;;;;;;4.56;53.92;99364.78;5038675;28;20286;-72
2022/01/09 09:57:33;;;;;;;14.30;0.57;;;;;;;4.40;54.03;99377.47;5021863;28;20403;-73
2022/01/09 10:00:10;;;;;;;7.75;0.82;;;;;;;4.16;54.44;99376.69;5029882;28;20047;-72
2022/01/09 10:02:46;;;;;;;6.18;0.52;;;;;;;4.73;53.10;99382.25;5035891;28;20552;-72
2022/01/09 10:05:15;;;;;;;5.18;0.55;;;;;;;4.69;52.73;99385.84;5041553;28;20044;-72
2022/01/09 10:07:41;;;;;;;11.77;0.40;;;;;;;4.70;52.90;99392.72;5035729;28;20024;-72
2022/01/09 10:10:10;;;;;;;13.07;1.02;;;;;;;4.50;52.83;99402.97;5032963;28;20046;-72
2022/01/09 10:12:38;;;;;;;9.98;1.00;;;;;;;4.81;52.24;99406.09;5033387;28;20626;-72
2022/01/09 10:15:09;;;;;;;13.27;1.30;;;;;;;4.74;52.26;99404.63;5056156;28;20556;-73
2022/01/09 10:17:39;;;;;;;4.38;0.75;;;;;;;4.93;51.89;99403.94;5034563;28;20033;-72
2022/01/09 10:20:17;;;;;;;13.32;1.00;;;;;;;4.16;54.01;99407.72;5035548;28;20037;-72
2022/01/09 10:22:49;;;;;;;4.38;1.10;;;;;;;4.25;53.27;99413.41;5041109;28;20025;-72
2022/01/09 10:25:33;;;;;;;13.90;0.80;;;;;;;4.17;53.40;99418.88;5051722;28;20041;-72
2022/01/09 10:28:06;;;;;;;3.70;0.85;;;;;;;4.45;52.56;99423.03;5054166;28;20380;-72
2022/01/09 10:30:43;;;;;;;10.77;0.68;;;;;;;4.30;52.72;99425.28;5051759;28;20123;-72
2022/01/09 10:33:14;;;;;;;6.68;0.40;;;;;;;4.23;52.74;99434.19;5027408;28;20431;-73
2022/01/09 10:35:44;;;;;;;6.93;2.05;;;;;;;4.41;52.17;99436.09;5036427;28;20135;-73
2022/01/09 10:38:12;;;;;;;8.40;1.67;;;;;;;4.58;52.14;99442.34;5036763;28;20056;-73
2022/01/09 10:40:41;;;;;;;11.52;1.92;;;;;;;4.73;52.02;99459.06;5055693;28;20419;-72
2022/01/09 10:43:13;;;;;;;7.07;0.77;;;;;;;4.60;52.23;99453.50;5055262;28;20044;-72
2022/01/09 10:45:41;;;;;;;8.52;0.73;;;;;;;4.44;52.38;99463.59;5025509;28;20367;-73
2022/01/09 10:48:18;;;;;;;9.10;0.73;;;;;;;4.48;52.16;99459.97;5058546;28;20050;-72
2022/01/09 10:50:45;;;;;;;10.25;0.77;;;;;;;4.78;51.47;99477.84;5049203;28;20048;-73
2022/01/09 10:53:11;;;;;;;7.97;0.73;;;;;;;4.65;52.03;99472.28;5016142;28;20041;-73
2022/01/09 10:55:42;;;;;;;12.73;0.68;;;;;;;4.70;51.57;99470.38;5051093;28;20139;-73
2022/01/09 10:58:22;;;;;;;8.60;0.55;;;;;;;4.15;52.54;99472.41;5060011;28;20040;-73
2022/01/09 11:01:11;;;;;;;8.00;0.45;;;;;;;4.88;51.23;99481.81;5043202;28;20101;-73
2022/01/09 11:03:38;;;;;;;8.80;0.40;;;;;;;4.66;51.49;99488.66;5034193;28;20056;-73
2022/01/09 11:06:04;;;;;;;6.68;0.60;;;;;;;4.91;51.05;99496.38;5055678;28;20032;-73
2022/01/09 11:08:30;;;;;;;7.63;0.47;;;;;;;5.23;50.47;99503.75;5024454;28;20087;-75
2022/01/09 11:10:58;;;;;;;10.07;0.65;;;;;;;4.65;51.31;99498.16;5035126;28;20028;-72
2022/01/09 11:13:26;;;;;;;10.73;0.77;;;;;;;5.06;50.37;99506.13;5034378;28;20056;-73
2022/01/09 11:18:41;;;;;;;5.78;0.88;;;;;;;5.12;50.51;99513.66;5032873;28;20487;-73
2022/01/09 11:21:06;;;;;;;6.45;0.60;;;;;;;4.91;50.73;99524.84;5022690;28;20470;-73
2022/01/09 11:24:01;;;;;;;11.20;1.08;;;;;;;4.86;51.16;99521.56;5033958;28;20025;-73
2022/01/09 11:26:44;;;;;;;9.60;0.75;;;;;;;5.10;50.89;99536.19;5026188;28;20036;-72
2022/01/09 11:29:15;;;;;;;7.25;0.55;;;;;;;4.88;51.29;99540.47;5054637;28;20049;-73
2022/01/09 11:31:51;;;;;;;6.53;1.23;;;;;;;4.53;52.18;99548.63;5056010;28;20355;-72
2022/01/09 11:34:40;;;;;;;6.68;1.05;;;;;;;4.78;51.76;99548.56;5048601;28;20037;-73
2022/01/09 11:37:44;;;;;;;14.15;1.45;;;;;;;5.01;51.02;99560.69;5034478;28;20087;-73
2022/01/09 11:40:24;;;;;;;4.45;0.60;;;;;;;4.78;51.46;99564.09;5029780;28;20065;-73
2022/01/09 11:43:02;;;;;;;14.10;1.45;;;;;;;4.67;51.11;99563.66;5045494;28;20034;-72
2022/01/09 11:45:57;;;;;;;10.73;0.73;;;;;;;4.51;51.87;99562.53;5047863;28;20522;-72